Time;durP1;ratioP1;P1;durP2;ratioP2;P2;SDS_P1;SDS_P2;PMS_P1;PMS_P2;Temp;Humidity;BMP_temperature;BMP_pressure;BME280_temperature;BME280_humidity;BME280_pressure;Samples;Min_cycle;Max_cycle;Signal;HPM_P1;HPM_P2
2022/11/08 00:03:28;;;;;;;10.93;2.25;;;;;;;10.15;56.95;100860.72;5025124;28;20032;-73
2022/11/08 00:14:07;;;;;;;3.95;0.68;;;;;;;10.50;55.91;100850.63;5024369;28;20188;-73
2022/11/08 00:16:32;;;;;;;4.97;0.98;;;;;;;9.65;58.28;100865.19;5024474;28;20022;-71
2022/11/08 00:18:59;;;;;;;7.13;0.80;;;;;;;10.35;56.33;100861.72;5026063;28;20401;-75
2022/11/08 00:21:24;;;;;;;5.30;0.70;;;;;;;10.41;55.98;100851.88;5025108;28;20143;-73
2022/11/08 00:23:50;;;;;;;9.70;1.73;;;;;;;10.44;56.01;100863.97;5008295;28;20041;-73
2022/11/08 00:26:15;;;;;;;6.65;1.55;;;;;;;10.40;56.18;100867.59;5006075;28;20037;-73
2022/11/08 00:28:40;;;;;;;14.80;1.40;;;;;;;10.84;54.77;100859.78;5028131;28;20568;-73
2022/11/08 00:31:06;;;;;;;13.18;1.08;;;;;;;10.92;54.71;100862.91;5025683;28;20045;-75
2022/11/08 00:33:32;;;;;;;8.75;1.05;;;;;;;10.25;56.31;100865.59;5007558;28;20044;-74
2022/11/08 00:35:58;;;;;;;6.47;0.75;;;;;;;10.16;56.74;100857.19;5022995;28;20053;-73
2022/11/08 00:38:23;;;;;;;8.80;1.00;;;;;;;10.73;54.92;100854.09;5014632;28;20128;-74
2022/11/08 00:40:49;;;;;;;5.20;1.33;;;;;;;10.34;56.14;100857.38;5024759;28;20124;-76
2022/11/08 00:43:14;;;;;;;5.95;0.95;;;;;;;10.81;54.67;100846.78;5026831;28;20044;-76
2022/11/08 00:45:40;;;;;;;8.07;1.77;;;;;;;10.77;55.01;100850.41;5010862;28;20188;-76
2022/11/08 00:48:05;;;;;;;8.52;1.52;;;;;;;10.52;55.43;100840.97;5013796;28;20127;-77
2022/11/08 00:50:31;;;;;;;4.53;0.65;;;;;;;10.77;55.13;100851.28;5010433;28;20050;-76
2022/11/08 00:52:56;;;;;;;5.00;0.75;;;;;;;10.52;55.60;100848.81;5027798;28;20091;-76
2022/11/08 00:55:22;;;;;;;11.10;1.27;;;;;;;10.71;55.13;100845.47;5013115;28;20037;-77
2022/11/08 00:57:47;;;;;;;10.48;1.33;;;;;;;10.64;55.28;100852.72;5026428;28;20119;-76
2022/11/08 01:00:13;;;;;;;11.05;1.20;;;;;;;10.93;54.39;100851.53;5028414;28;20044;-77
2022/11/08 01:02:39;;;;;;;6.80;1.05;;;;;;;10.94;54.41;100850.59;5007589;28;20383;-77
2022/11/08 01:05:05;;;;;;;10.05;1.00;;;;;;;10.70;54.76;100846.38;5013490;28;20083;-76
2022/11/08 01:07:30;;;;;;;10.68;0.95;;;;;;;10.40;56.23;100850.16;5020818;28;20114;-76
2022/11/08 01:09:56;;;;;;;10.18;1.25;;;;;;;10.66;55.16;100855.25;5014305;28;20049;-76
2022/11/08 01:12:21;;;;;;;7.38;1.05;;;;;;;10.75;55.06;100849.63;5031470;28;20024;-77
2022/11/08 01:14:47;;;;;;;8.70;0.47;;;;;;;10.60;55.33;100851.13;5018079;28;20140;-77
2022/11/08 01:17:12;;;;;;;17.08;1.27;;;;;;;10.86;54.66;100857.06;5014790;28;20044;-76
2022/11/08 01:19:37;;;;;;;6.82;0.63;;;;;;;10.90;54.81;100856.03;5030390;28;20084;-77
2022/11/08 01:22:03;;;;;;;7.05;0.82;;;;;;;10.95;54.36;100848.84;5015471;28;20074;-76
2022/11/08 01:24:28;;;;;;;9.50;1.73;;;;;;;10.82;54.83;100845.91;4999646;28;20047;-76
2022/11/08 01:26:54;;;;;;;3.40;0.90;;;;;;;10.73;54.64;100852.34;5021261;28;20125;-76
2022/11/08 01:29:19;;;;;;;7.85;1.27;;;;;;;10.85;54.78;100851.00;5029631;28;20148;-77
2022/11/08 01:31:45;;;;;;;6.82;0.90;;;;;;;10.70;55.23;100846.38;5013117;28;20103;-73
2022/11/08 01:34:10;;;;;;;5.07;0.98;;;;;;;10.87;54.52;100849.16;5023552;28;20119;-72
2022/11/08 01:36:36;;;;;;;7.13;1.23;;;;;;;10.84;54.38;100846.69;5026661;28;20047;-73
2022/11/08 01:39:01;;;;;;;7.72;1.10;;;;;;;10.81;54.76;100844.16;5027650;28;20244;-72
2022/11/08 01:41:27;;;;;;;8.98;1.20;;;;;;;10.76;54.84;100841.75;5028269;28;20513;-72
2022/11/08 01:43:58;;;;;;;5.63;1.00;;;;;;;10.63;55.34;100836.16;5011033;28;20549;-72
2022/11/08 01:46:49;;;;;;;13.77;1.48;;;;;;;10.83;54.82;100839.75;5014588;28;20045;-72
2022/11/08 01:49:33;;;;;;;2.95;0.68;;;;;;;10.92;54.38;100843.75;5025665;28;20518;-71
2022/11/08 01:52:17;;;;;;;9.00;0.85;;;;;;;10.53;55.37;100837.47;5026855;28;20123;-72
2022/11/08 01:54:42;;;;;;;8.02;1.02;;;;;;;10.28;55.96;100841.94;5025571;28;20045;-71
2022/11/08 01:57:11;;;;;;;7.22;0.95;;;;;;;10.24;56.04;100836.00;5018880;28;20036;-71
2022/11/08 01:59:41;;;;;;;5.18;0.60;;;;;;;10.90;54.34;100833.34;5027088;28;20037;-72
2022/11/08 02:02:08;;;;;;;12.68;1.55;;;;;;;10.95;54.17;100836.63;5018907;28;20072;-74
2022/11/08 02:04:34;;;;;;;5.40;0.68;;;;;;;10.78;54.65;100829.44;5017783;28;20068;-74
2022/11/08 02:07:01;;;;;;;5.95;0.73;;;;;;;10.93;54.22;100830.63;5027659;28;20075;-73
2022/11/08 02:09:27;;;;;;;9.45;0.90;;;;;;;10.75;54.69;100823.50;5027187;28;20647;-73
2022/11/08 02:11:53;;;;;;;4.82;0.65;;;;;;;10.81;54.38;100818.88;5027126;28;20975;-76
2022/11/08 02:14:19;;;;;;;7.32;1.35;;;;;;;10.93;53.82;100817.53;5027278;28;20045;-76
2022/11/08 02:16:44;;;;;;;6.85;1.15;;;;;;;10.87;54.31;100823.03;5012528;28;20032;-76
2022/11/08 02:19:16;;;;;;;8.93;0.95;;;;;;;10.82;54.24;100828.44;5010214;28;20041;-76
2022/11/08 02:21:54;;;;;;;9.00;1.35;;;;;;;10.79;54.78;100825.06;5012940;28;20385;-75
2022/11/08 02:24:20;;;;;;;10.38;1.27;;;;;;;10.72;54.50;100823.63;5013729;28;20052;-76
2022/11/08 02:26:48;;;;;;;9.00;0.70;;;;;;;10.92;54.02;100822.81;5012451;28;20033;-76
2022/11/08 02:29:27;;;;;;;10.43;1.90;;;;;;;10.87;53.88;100823.03;5027664;28;20045;-75
2022/11/08 02:31:53;;;;;;;6.40;0.90;;;;;;;10.92;53.78;100815.81;5009944;28;20031;-76
2022/11/08 02:34:41;;;;;;;6.40;0.68;;;;;;;10.83;53.88;100817.06;5013920;28;20455;-75
2022/11/08 02:37:07;;;;;;;5.40;0.60;;;;;;;10.67;54.49;100808.13;4995812;28;20208;-77
2022/11/08 02:39:33;;;;;;;8.35;0.85;;;;;;;10.59;54.51;100813.69;5027045;28;20144;-77
2022/11/08 02:42:00;;;;;;;10.98;1.77;;;;;;;10.59;54.29;100815.44;5026470;28;20064;-75
2022/11/08 02:44:25;;;;;;;7.97;1.27;;;;;;;10.76;53.94;100814.75;5009281;28;20071;-76
2022/11/08 02:46:50;;;;;;;5.28;1.02;;;;;;;10.71;54.01;100821.94;5027965;28;20095;-76
2022/11/08 02:49:16;;;;;;;11.35;1.48;;;;;;;10.77;53.73;100809.47;5027735;28;20084;-77
2022/11/08 02:51:41;;;;;;;6.30;1.00;;;;;;;10.67;54.18;100804.69;5013833;28;20090;-71
2022/11/08 02:54:07;;;;;;;7.03;0.88;;;;;;;10.51;54.49;100801.84;5025142;28;20033;-70
2022/11/08 02:56:32;;;;;;;4.85;0.55;;;;;;;10.38;54.98;100797.09;5024920;28;20547;-71
2022/11/08 02:58:57;;;;;;;7.13;0.73;;;;;;;10.50;54.64;100798.38;5024521;28;20040;-69
2022/11/08 03:01:23;;;;;;;5.55;1.23;;;;;;;10.66;53.64;100795.13;5025759;28;20392;-69
2022/11/08 03:03:48;;;;;;;8.48;1.25;;;;;;;10.64;53.68;100796.06;5027801;28;20523;-69
2022/11/08 03:06:14;;;;;;;11.60;1.08;;;;;;;10.61;53.84;100788.31;5027532;28;20032;-70
2022/11/08 03:08:39;;;;;;;6.47;0.98;;;;;;;10.59;53.91;100784.94;5025199;28;20368;-69
2022/11/08 03:11:05;;;;;;;3.30;0.73;;;;;;;10.48;53.68;100784.53;5027227;28;20033;-70
2022/11/08 03:13:30;;;;;;;7.35;0.70;;;;;;;10.35;54.41;100785.94;5017233;28;20127;-68
2022/11/08 03:15:56;;;;;;;8.82;1.58;;;;;;;10.38;53.82;100778.81;5024934;28;20391;-70
2022/11/08 03:18:21;;;;;;;6.55;0.57;;;;;;;10.13;54.97;100778.97;5025696;28;20110;-70
2022/11/08 03:20:47;;;;;;;6.53;0.80;;;;;;;10.21;54.86;100787.34;5011606;28;20120;-70
2022/11/08 03:23:12;;;;;;;11.57;1.02;;;;;;;10.11;55.08;100780.78;5026044;28;20041;-71
2022/11/08 03:25:38;;;;;;;9.07;1.08;;;;;;;10.06;55.17;100784.47;5024278;28;20502;-72
2022/11/08 03:28:06;;;;;;;3.17;0.60;;;;;;;10.09;54.85;100787.81;5024920;28;20116;-70
2022/11/08 03:30:32;;;;;;;3.88;0.47;;;;;;;10.10;55.04;100778.22;5007785;28;20045;-71
2022/11/08 03:32:57;;;;;;;8.20;1.00;;;;;;;10.17;54.57;100785.78;5007870;28;20032;-72
2022/11/08 03:35:22;;;;;;;9.15;1.13;;;;;;;10.17;54.18;100787.53;5026857;28;20037;-70
2022/11/08 03:37:50;;;;;;;8.77;0.70;;;;;;;9.95;54.96;100782.31;5022474;28;20037;-71
2022/11/08 03:40:16;;;;;;;5.43;0.80;;;;;;;9.91;55.22;100793.78;5024672;28;20041;-71
2022/11/08 03:42:41;;;;;;;8.48;0.75;;;;;;;9.97;55.12;100790.94;5009760;28;20037;-70
2022/11/08 03:45:07;;;;;;;6.28;0.65;;;;;;;9.93;55.05;100789.34;5010775;28;20040;-70
2022/11/08 03:47:37;;;;;;;6.80;0.65;;;;;;;9.78;55.37;100788.13;5010893;28;20446;-70
2022/11/08 03:50:03;;;;;;;3.88;0.60;;;;;;;9.90;55.07;100776.38;5025415;28;20041;-70
2022/11/08 03:52:28;;;;;;;7.03;1.15;;;;;;;9.80;55.41;100784.56;5011002;28;20036;-73
2022/11/08 03:54:54;;;;;;;3.08;0.90;;;;;;;9.74;55.34;100790.00;5024515;28;20490;-72
2022/11/08 03:57:19;;;;;;;2.70;0.40;;;;;;;9.73;55.22;100790.91;5012805;28;20040;-75
2022/11/08 03:59:45;;;;;;;6.55;0.55;;;;;;;9.68;55.12;100786.75;5015376;28;20492;-75
2022/11/08 04:02:10;;;;;;;6.63;1.58;;;;;;;9.40;56.26;100787.78;5011023;28;20037;-75
2022/11/08 04:04:36;;;;;;;7.63;1.38;;;;;;;9.66;55.42;100784.22;5023630;28;20052;-76
2022/11/08 04:07:01;;;;;;;10.85;1.00;;;;;;;9.48;56.25;100777.09;5025869;28;20041;-75
2022/11/08 04:09:26;;;;;;;12.45;2.20;;;;;;;9.46;56.47;100786.72;5017032;28;20148;-76
2022/11/08 04:21:17;;;;;;;7.63;1.08;;;;;;;9.59;55.65;100782.75;5024923;28;20052;-71
2022/11/08 04:22:52;;;;;;;5.63;1.05;;;;;;;9.57;56.22;100785.41;5024264;28;20042;-71
2022/11/08 04:25:17;;;;;;;9.27;1.15;;;;;;;9.53;55.85;100765.56;5021216;28;20048;-70
2022/11/08 04:27:43;;;;;;;4.35;0.55;;;;;;;9.65;55.13;100769.47;5015966;28;20090;-69
2022/11/08 04:30:09;;;;;;;2.50;0.73;;;;;;;9.36;55.99;100766.16;5021743;28;20501;-70
2022/11/08 04:32:34;;;;;;;9.55;0.88;;;;;;;9.39;56.12;100760.88;5007004;28;20562;-71
2022/11/08 04:34:59;;;;;;;4.05;0.90;;;;;;;9.40;55.80;100765.16;5020516;28;20187;-70
2022/11/08 04:37:25;;;;;;;3.70;0.90;;;;;;;9.32;55.93;100764.59;5025568;28;20089;-70
2022/11/08 04:39:50;;;;;;;2.92;0.82;;;;;;;9.48;55.59;100758.84;5024103;28;20037;-70
2022/11/08 04:42:16;;;;;;;6.38;0.80;;;;;;;9.25;56.35;100757.88;5030021;28;20029;-70
2022/11/08 04:44:41;;;;;;;11.05;0.80;;;;;;;9.44;55.79;100752.03;5025985;28;20359;-73
2022/11/08 04:47:10;;;;;;;4.35;1.58;;;;;;;9.34;56.15;100749.75;5014660;28;20521;-72
2022/11/08 04:49:35;;;;;;;6.30;1.00;;;;;;;9.30;55.86;100753.38;5027621;28;20037;-73
2022/11/08 04:52:00;;;;;;;7.70;0.85;;;;;;;9.29;55.68;100751.66;5017956;28;20060;-73
2022/11/08 04:54:26;;;;;;;5.88;0.77;;;;;;;9.26;56.08;100749.19;5030684;28;20060;-72
2022/11/08 04:56:51;;;;;;;6.13;0.50;;;;;;;9.10;56.39;100748.03;5016445;28;20033;-73
2022/11/08 04:59:17;;;;;;;7.43;0.85;;;;;;;9.13;56.55;100748.75;5014245;28;20116;-72
2022/11/08 05:01:42;;;;;;;6.25;0.82;;;;;;;9.27;56.23;100753.47;5029660;28;20120;-73
2022/11/08 05:04:07;;;;;;;7.03;1.13;;;;;;;9.22;56.36;100751.94;5018073;28;20132;-72
2022/11/08 05:06:33;;;;;;;3.15;0.57;;;;;;;9.18;56.19;100740.78;5010868;28;20100;-73
2022/11/08 05:08:59;;;;;;;7.25;0.90;;;;;;;9.13;56.48;100732.28;5026663;28;20552;-71
2022/11/08 05:11:27;;;;;;;7.15;1.00;;;;;;;9.10;56.22;100724.56;5029950;28;20146;-72
2022/11/08 05:13:53;;;;;;;2.92;0.55;;;;;;;9.12;56.33;100726.22;5011239;28;22172;-73
2022/11/08 05:16:21;;;;;;;6.82;1.38;;;;;;;9.04;56.64;100730.84;5028850;28;20695;-71
2022/11/08 05:18:47;;;;;;;5.93;1.17;;;;;;;9.05;56.13;100729.94;5028102;28;20072;-71
2022/11/08 05:24:01;;;;;;;8.38;1.17;;;;;;;9.00;56.34;100731.84;5025051;28;20175;-71
2022/11/08 05:26:28;;;;;;;12.98;1.30;;;;;;;8.65;57.59;100723.50;5031270;28;20057;-73
2022/11/08 05:28:54;;;;;;;3.10;1.17;;;;;;;8.90;56.93;100718.31;5027160;28;20068;-72
2022/11/08 05:31:19;;;;;;;8.75;2.58;;;;;;;8.86;56.75;100713.25;5026186;28;20064;-70
2022/11/08 05:33:45;;;;;;;8.60;0.90;;;;;;;8.92;56.54;100720.88;5023370;28;20124;-72
2022/11/08 05:36:12;;;;;;;3.97;1.33;;;;;;;8.96;56.35;100702.47;5026916;28;20501;-71
2022/11/08 05:38:39;;;;;;;7.32;1.30;;;;;;;8.91;56.32;100700.91;5018364;28;20033;-71
2022/11/08 05:41:11;;;;;;;14.45;4.68;;;;;;;8.86;56.37;100706.28;5027127;28;20051;-73
2022/11/08 05:43:37;;;;;;;5.85;1.75;;;;;;;8.94;56.10;100701.66;5024079;28;20505;-72
2022/11/08 05:46:02;;;;;;;7.57;2.58;;;;;;;8.73;57.18;100707.63;5018190;28;20285;-72
2022/11/08 05:48:28;;;;;;;8.32;1.83;;;;;;;8.85;56.41;100708.94;5027233;28;20551;-73
2022/11/08 05:50:54;;;;;;;4.82;1.52;;;;;;;8.76;56.82;100703.16;5011826;28;20083;-72
2022/11/08 05:53:20;;;;;;;7.78;1.55;;;;;;;8.82;56.73;100696.03;5028391;28;20033;-72
2022/11/08 05:55:45;;;;;;;7.35;1.67;;;;;;;8.77;56.30;100704.84;5026051;28;20429;-75
2022/11/08 05:58:11;;;;;;;11.63;1.88;;;;;;;8.83;55.88;100693.38;5026087;28;20040;-75
2022/11/08 06:00:36;;;;;;;9.38;1.73;;;;;;;8.68;56.46;100699.94;5018375;28;20147;-75
2022/11/08 06:03:03;;;;;;;4.72;1.60;;;;;;;8.64;56.33;100695.72;5018530;28;20037;-74
2022/11/08 06:05:29;;;;;;;2.63;0.95;;;;;;;8.48;56.67;100703.22;5014795;28;20571;-72
2022/11/08 06:07:54;;;;;;;7.00;2.13;;;;;;;8.36;57.44;100703.66;5027371;28;20025;-72
2022/11/08 06:10:20;;;;;;;6.00;1.75;;;;;;;8.50;56.56;100693.59;5017319;28;20037;-73
2022/11/08 06:12:46;;;;;;;9.45;2.10;;;;;;;8.51;56.90;100695.28;5012583;28;20065;-73
2022/11/08 06:15:11;;;;;;;8.40;1.77;;;;;;;8.56;56.56;100692.53;5010428;28;20124;-71
2022/11/08 06:17:36;;;;;;;9.50;1.27;;;;;;;8.47;56.96;100691.13;5026167;28;20036;-71
2022/11/08 06:20:03;;;;;;;6.65;1.63;;;;;;;8.49;56.83;100686.69;5010331;28;20045;-72
2022/11/08 06:22:31;;;;;;;6.10;1.40;;;;;;;8.60;56.68;100686.31;5026066;28;20404;-71
2022/11/08 06:24:56;;;;;;;5.90;1.95;;;;;;;8.31;57.08;100684.69;5025110;28;20041;-71
2022/11/08 06:27:22;;;;;;;8.70;2.30;;;;;;;8.48;56.91;100679.78;5027866;28;20617;-73
2022/11/08 06:29:47;;;;;;;5.18;1.77;;;;;;;8.64;56.53;100674.03;5023296;28;20659;-72
2022/11/08 06:32:13;;;;;;;9.05;2.42;;;;;;;8.57;56.99;100678.63;5027195;28;20079;-72
2022/11/08 06:34:39;;;;;;;10.68;2.88;;;;;;;8.64;56.57;100666.22;5007758;28;20128;-74
2022/11/08 06:37:04;;;;;;;7.53;2.22;;;;;;;8.62;56.62;100670.63;5027036;28;20037;-73
2022/11/08 06:39:33;;;;;;;8.18;2.58;;;;;;;8.62;56.53;100670.63;5011961;28;20680;-76
2022/11/08 06:41:59;;;;;;;7.60;2.45;;;;;;;8.48;57.13;100661.53;5007408;28;20029;-71
2022/11/08 06:44:25;;;;;;;10.50;1.67;;;;;;;8.70;56.06;100658.19;5010181;28;20591;-71
2022/11/08 06:46:50;;;;;;;9.95;1.92;;;;;;;8.56;56.35;100651.72;5011110;28;20032;-70
2022/11/08 06:49:16;;;;;;;10.35;2.50;;;;;;;8.54;56.34;100644.88;5026295;28;20050;-71
2022/11/08 06:51:41;;;;;;;10.95;1.50;;;;;;;8.36;57.32;100651.56;5008916;28;20040;-70
2022/11/08 06:54:07;;;;;;;6.93;1.80;;;;;;;8.39;56.70;100653.22;5000420;28;20417;-70
2022/11/08 06:56:33;;;;;;;7.70;1.90;;;;;;;8.53;55.96;100651.81;5028995;28;20029;-72
2022/11/08 06:58:59;;;;;;;8.15;1.13;;;;;;;8.48;56.40;100651.13;5021921;28;20051;-70
2022/11/08 07:01:25;;;;;;;4.45;1.33;;;;;;;8.72;55.98;100653.81;5026511;28;20021;-74
2022/11/08 07:03:50;;;;;;;2.35;1.13;;;;;;;8.69;55.40;100653.88;5004692;28;20033;-71
2022/11/08 07:06:16;;;;;;;5.53;1.40;;;;;;;8.69;55.86;100659.94;5023957;28;20500;-70
2022/11/08 07:08:41;;;;;;;5.78;1.50;;;;;;;8.12;57.13;100656.69;5026281;28;20061;-70
2022/11/08 07:11:07;;;;;;;7.07;1.58;;;;;;;8.24;57.41;100651.97;5025361;28;20037;-70
2022/11/08 07:13:33;;;;;;;4.55;1.80;;;;;;;8.63;55.93;100648.88;5009336;28;20398;-70
2022/11/08 07:15:59;;;;;;;3.45;1.42;;;;;;;8.57;55.90;100645.59;5026625;28;20039;-71
2022/11/08 07:18:25;;;;;;;2.28;1.00;;;;;;;8.83;55.27;100649.06;5026240;28;20034;-71
2022/11/08 07:20:51;;;;;;;4.38;1.30;;;;;;;8.82;55.10;100642.16;5025048;28;20021;-72
2022/11/08 07:23:17;;;;;;;8.77;1.00;;;;;;;8.91;54.92;100633.97;5010936;28;21033;-71
2022/11/08 07:25:43;;;;;;;3.30;1.05;;;;;;;8.87;54.86;100640.22;5008455;28;20045;-70
2022/11/08 07:28:16;;;;;;;5.30;0.98;;;;;;;9.10;54.61;100628.09;5027644;28;20459;-70
2022/11/08 07:30:46;;;;;;;9.60;1.83;;;;;;;8.79;55.02;100624.03;5025176;28;20045;-72
2022/11/08 07:33:12;;;;;;;3.78;0.80;;;;;;;9.10;54.09;100625.50;5025906;28;20124;-70
2022/11/08 07:35:38;;;;;;;6.32;1.17;;;;;;;9.24;53.92;100625.81;5022726;28;20045;-73
2022/11/08 07:38:04;;;;;;;7.68;0.75;;;;;;;9.44;53.04;100625.03;5024923;28;20041;-70
2022/11/08 07:40:29;;;;;;;8.45;1.13;;;;;;;9.41;53.25;100619.94;5005350;28;20095;-70
2022/11/08 07:42:58;;;;;;;5.47;0.90;;;;;;;9.33;53.58;100616.78;5024110;28;20036;-71
2022/11/08 07:45:24;;;;;;;4.55;0.90;;;;;;;9.44;53.15;100614.59;5015474;28;20094;-71
2022/11/08 07:48:01;;;;;;;6.82;1.15;;;;;;;9.87;52.13;100604.22;5022645;28;20055;-69
2022/11/08 07:50:27;;;;;;;2.65;0.80;;;;;;;10.15;51.56;100606.53;5023391;28;20037;-71
2022/11/08 07:52:53;;;;;;;6.60;0.75;;;;;;;10.42;50.40;100601.88;5026422;28;21364;-72
2022/11/08 07:55:18;;;;;;;4.72;0.90;;;;;;;10.68;50.19;100618.16;5008733;28;20052;-71
2022/11/08 07:57:44;;;;;;;7.13;0.63;;;;;;;10.67;49.56;100611.25;5015003;28;20039;-71
2022/11/08 08:00:10;;;;;;;3.47;0.82;;;;;;;9.94;50.36;100614.34;5011562;28;20230;-71
2022/11/08 08:02:39;;;;;;;2.80;0.43;;;;;;;10.07;50.43;100614.69;5025079;28;20584;-72
2022/11/08 08:05:05;;;;;;;5.78;0.77;;;;;;;10.10;50.76;100611.97;5010309;28;20040;-72
2022/11/08 08:07:30;;;;;;;4.93;1.40;;;;;;;10.06;50.84;100599.94;5011455;28;20566;-71
2022/11/08 08:09:55;;;;;;;3.75;1.52;;;;;;;9.87;51.02;100594.63;5008512;28;20106;-72
2022/11/08 08:12:21;;;;;;;1.80;0.60;;;;;;;9.19;51.98;100592.09;5027143;28;20041;-72
2022/11/08 08:14:47;;;;;;;4.85;0.80;;;;;;;9.82;51.43;100588.75;5026784;28;20322;-72
2022/11/08 08:17:12;;;;;;;7.82;0.70;;;;;;;9.51;51.65;100595.19;5010795;28;20082;-71
2022/11/08 08:19:38;;;;;;;10.25;0.55;;;;;;;9.85;50.94;100579.94;5012488;28;20038;-71
2022/11/08 08:22:03;;;;;;;2.67;0.60;;;;;;;9.50;51.42;100584.81;5027804;28;20176;-73
2022/11/08 08:24:29;;;;;;;1.17;0.47;;;;;;;9.90;50.47;100575.38;5029090;28;20043;-73
2022/11/08 08:26:54;;;;;;;3.65;0.50;;;;;;;10.10;50.22;100564.97;5027051;28;20492;-72
2022/11/08 08:29:20;;;;;;;3.65;0.75;;;;;;;9.83;50.20;100563.50;5029509;28;20048;-72
2022/11/08 08:31:45;;;;;;;1.38;0.47;;;;;;;9.96;49.90;100565.53;5015761;28;20029;-72
2022/11/08 08:34:11;;;;;;;5.50;0.95;;;;;;;10.10;49.57;100554.50;5028656;28;20498;-72
2022/11/08 08:36:36;;;;;;;1.52;0.52;;;;;;;9.92;50.08;100560.50;5011617;28;20033;-72
2022/11/08 08:39:02;;;;;;;1.25;0.32;;;;;;;10.21;49.30;100552.28;5026844;28;20171;-72
2022/11/08 08:41:27;;;;;;;1.48;0.70;;;;;;;9.88;49.74;100545.88;5027493;28;20486;-72
2022/11/08 08:43:54;;;;;;;4.60;0.70;;;;;;;10.19;49.37;100541.06;5026287;28;20786;-72
2022/11/08 08:46:19;;;;;;;3.67;0.93;;;;;;;10.11;49.39;100548.38;5028740;28;20501;-73
2022/11/08 08:48:44;;;;;;;6.15;0.82;;;;;;;10.13;49.43;100548.31;5022074;28;20182;-72
2022/11/08 08:51:10;;;;;;;6.93;1.33;;;;;;;10.63;48.40;100542.59;5027733;28;20029;-72
2022/11/08 08:53:35;;;;;;;1.25;0.30;;;;;;;10.79;47.82;100547.94;5024294;28;20605;-72
2022/11/08 08:56:04;;;;;;;1.98;0.30;;;;;;;10.84;47.66;100551.25;5029963;28;20094;-72
2022/11/08 08:58:29;;;;;;;2.88;0.50;;;;;;;11.07;46.92;100536.25;5027809;28;20037;-73
2022/11/08 09:00:59;;;;;;;2.60;0.70;;;;;;;11.38;45.91;100541.69;5028304;28;20114;-72
2022/11/08 09:03:25;;;;;;;3.67;1.02;;;;;;;11.69;45.94;100540.19;5017645;28;20051;-72
2022/11/08 09:05:50;;;;;;;2.22;0.35;;;;;;;11.76;45.65;100546.81;5027065;28;20554;-72
2022/11/08 09:08:15;;;;;;;5.63;0.28;;;;;;;11.95;45.34;100546.75;5028987;28;20037;-72
2022/11/08 09:10:42;;;;;;;3.53;0.40;;;;;;;11.99;44.27;100529.13;5014363;28;20036;-72
2022/11/08 09:13:07;;;;;;;1.80;0.38;;;;;;;11.85;44.41;100535.06;5027258;28;20477;-72
2022/11/08 09:15:33;;;;;;;2.63;0.40;;;;;;;12.47;44.47;100517.00;5032551;28;20041;-72
2022/11/08 09:17:58;;;;;;;12.15;1.25;;;;;;;12.24;43.79;100524.28;5025266;28;20025;-71
2022/11/08 09:20:24;;;;;;;3.40;0.43;;;;;;;13.09;42.44;100517.09;5025775;28;20413;-74
2022/11/08 09:22:49;;;;;;;7.40;0.88;;;;;;;12.09;43.63;100517.25;5025364;28;20159;-71
2022/11/08 09:25:15;;;;;;;4.32;0.57;;;;;;;12.43;43.27;100518.91;5023366;28;20041;-72
2022/11/08 09:27:40;;;;;;;3.70;0.75;;;;;;;12.84;42.84;100510.59;5018794;28;20037;-72
2022/11/08 09:30:06;;;;;;;2.05;0.20;;;;;;;11.85;44.20;100508.88;5007700;28;20136;-72
2022/11/08 09:32:32;;;;;;;3.45;0.45;;;;;;;12.85;42.51;100503.59;5012046;28;20060;-72
2022/11/08 09:34:58;;;;;;;2.42;0.68;;;;;;;12.66;42.80;100491.44;5010636;28;20135;-72
2022/11/08 09:37:24;;;;;;;2.13;0.30;;;;;;;12.53;42.67;100495.66;5026196;28;20026;-72
2022/11/08 09:39:50;;;;;;;1.80;0.30;;;;;;;12.77;42.25;100487.44;5012782;28;20045;-71
2022/11/08 09:42:46;;;;;;;1.95;0.35;;;;;;;12.64;42.35;100485.44;5023771;28;20033;-72
2022/11/08 09:45:23;;;;;;;1.58;0.40;;;;;;;12.81;42.92;100484.56;5010524;28;20059;-72
2022/11/08 09:47:54;;;;;;;2.83;0.35;;;;;;;12.78;42.58;100471.63;5027019;28;20210;-72
2022/11/08 09:50:44;;;;;;;5.72;0.30;;;;;;;12.26;43.26;100474.41;5028252;28;20502;-72
2022/11/08 09:53:20;;;;;;;3.17;0.40;;;;;;;12.38;43.37;100472.91;5022059;28;20045;-71
2022/11/08 09:55:46;;;;;;;1.65;0.30;;;;;;;12.17;43.62;100472.28;5023714;28;20038;-72
2022/11/08 09:58:20;;;;;;;2.08;0.50;;;;;;;12.42;43.00;100477.94;5013246;28;20042;-71
2022/11/08 10:00:49;;;;;;;2.20;0.40;;;;;;;12.57;42.76;100486.72;5022410;28;20057;-70
2022/11/08 10:03:16;;;;;;;2.95;0.43;;;;;;;12.38;42.97;100483.38;5011384;28;20063;-71
2022/11/08 10:06:06;;;;;;;2.20;0.38;;;;;;;11.97;43.68;100482.03;5015448;28;20041;-71
2022/11/08 10:08:57;;;;;;;2.22;0.35;;;;;;;12.25;43.97;100488.47;5025150;28;20064;-72
2022/11/08 10:11:38;;;;;;;1.48;0.22;;;;;;;12.28;43.54;100489.13;5004709;28;20053;-71
2022/11/08 10:14:27;;;;;;;4.65;0.80;;;;;;;12.42;43.17;100482.31;5014816;28;20741;-72
2022/11/08 10:17:30;;;;;;;1.50;0.35;;;;;;;11.99;43.59;100481.97;5027640;28;22237;-72
2022/11/08 10:20:24;;;;;;;0.68;0.10;;;;;;;12.82;43.21;100490.63;5010943;28;20082;-73
2022/11/08 10:23:35;;;;;;;1.55;0.13;;;;;;;12.73;42.79;100484.13;5029497;28;20665;-72
2022/11/08 10:26:20;;;;;;;3.38;0.57;;;;;;;13.18;42.06;100481.63;4996852;28;20052;-71
2022/11/08 10:28:53;;;;;;;1.25;0.43;;;;;;;12.94;42.14;100474.22;5013084;28;20038;-72
2022/11/08 10:31:19;;;;;;;4.43;0.60;;;;;;;12.95;42.21;100470.66;5011502;28;20109;-72
2022/11/08 10:33:51;;;;;;;3.78;0.73;;;;;;;12.41;43.36;100463.13;5008257;28;20038;-72
2022/11/08 10:36:30;;;;;;;2.10;0.25;;;;;;;12.52;43.09;100462.53;4993033;28;20329;-71
2022/11/08 10:39:03;;;;;;;2.85;0.30;;;;;;;12.47;42.93;100460.16;5022944;28;20045;-72
2022/11/08 10:41:38;;;;;;;2.35;0.30;;;;;;;12.72;42.99;100458.84;5009600;28;20444;-72
2022/11/08 10:44:10;;;;;;;1.33;0.32;;;;;;;12.63;42.90;100462.78;5021218;28;20041;-72
2022/11/08 10:46:37;;;;;;;;;;;;;;;12.99;41.83;100453.81;5007477;28;20416;-71
2022/11/08 10:49:14;;;;;;;1.33;0.20;;;;;;;13.06;41.48;100446.44;5009119;28;20240;-72
2022/11/08 10:51:42;;;;;;;1.85;0.30;;;;;;;13.07;41.86;100454.25;5009804;28;20137;-73
2022/11/08 10:54:44;;;;;;;4.13;0.40;;;;;;;13.48;41.29;100458.84;5004962;28;20044;-74
2022/11/08 10:57:32;;;;;;;1.52;0.20;;;;;;;13.94;40.44;100445.63;5008800;28;20424;-73
2022/11/08 11:00:16;;;;;;;0.40;0.20;;;;;;;14.06;39.97;100437.94;4997105;28;20037;-73
2022/11/08 11:02:42;;;;;;;1.27;0.35;;;;;;;14.03;39.46;100430.22;5008250;28;20026;-72
2022/11/08 11:05:17;;;;;;;1.67;0.43;;;;;;;14.30;39.07;100428.53;5011315;28;20057;-71
2022/11/08 11:07:51;;;;;;;1.95;0.30;;;;;;;14.16;40.14;100436.41;5007698;28;20120;-73
2022/11/08 11:10:22;;;;;;;0.85;0.60;;;;;;;14.41;39.18;100427.03;5003630;28;20049;-72
2022/11/08 11:12:50;;;;;;;4.13;0.28;;;;;;;14.17;39.25;100430.22;5021722;28;20042;-72
2022/11/08 11:15:16;;;;;;;3.30;0.32;;;;;;;14.39;38.91;100424.47;5004728;28;21150;-71
2022/11/08 11:17:44;;;;;;;0.90;0.20;;;;;;;14.28;38.75;100412.00;5008496;28;20030;-72
2022/11/08 11:20:21;;;;;;;3.00;0.40;;;;;;;13.97;39.43;100396.47;5008269;28;20169;-72
2022/11/08 11:22:47;;;;;;;2.17;0.20;;;;;;;14.05;39.09;100399.44;5011401;28;20449;-71
2022/11/08 11:25:16;;;;;;;1.30;0.30;;;;;;;14.32;38.88;100394.22;5008229;28;20052;-73
2022/11/08 11:27:42;;;;;;;3.38;0.32;;;;;;;14.43;38.79;100423.34;5009240;28;20029;-72
2022/11/08 11:30:22;;;;;;;0.93;0.22;;;;;;;13.60;39.83;100417.91;5007402;28;20050;-72
2022/11/08 11:32:57;;;;;;;3.90;0.30;;;;;;;13.37;40.59;100408.78;5019648;28;20026;-71
2022/11/08 11:35:27;;;;;;;1.67;0.35;;;;;;;13.80;39.86;100406.22;5007876;28;20547;-73
2022/11/08 11:37:55;;;;;;;1.27;0.30;;;;;;;13.84;39.78;100406.88;5005948;28;20049;-72
2022/11/08 11:40:44;;;;;;;5.38;0.40;;;;;;;13.70;39.94;100415.59;5006476;28;20128;-72
2022/11/08 11:43:18;;;;;;;1.27;0.13;;;;;;;13.91;39.66;100416.91;5021615;28;20041;-72
2022/11/08 11:46:00;;;;;;;5.05;0.30;;;;;;;14.07;39.71;100418.59;5006925;28;20553;-72
2022/11/08 11:48:27;;;;;;;;;;;;;;;13.74;39.50;100414.47;5004135;28;20041;-71
2022/11/08 11:50:53;;;;;;;1.50;0.22;;;;;;;13.97;39.83;100420.94;5023185;28;20008;-72
2022/11/08 11:53:24;;;;;;;1.02;0.20;;;;;;;14.25;39.19;100411.34;5015693;28;20531;-73
2022/11/08 11:56:12;;;;;;;7.50;0.28;;;;;;;14.06;39.21;100412.50;5003138;28;20051;-71